Time;durP1;ratioP1;P1;durP2;ratioP2;P2;SDS_P1;SDS_P2;PMS_P1;PMS_P2;Temp;Humidity;BMP_temperature;BMP_pressure;BME280_temperature;BME280_humidity;BME280_pressure;Samples;Min_cycle;Max_cycle;Signal;HPM_P1;HPM_P2
2022/04/24 00:00:14;;;;;;;;;;;20.70;43.00;;;;;;5057566;28;19928;-74
2022/04/24 00:02:40;;;;;;;;;;;20.70;43.00;;;;;;5075814;28;19924;-74
2022/04/24 00:05:06;;;;;;;;;;;20.70;43.00;;;;;;5059212;28;19931;-75
2022/04/24 00:07:31;;;;;;;;;;;20.70;43.10;;;;;;5044905;28;19924;-76
2022/04/24 00:09:57;;;;;;;;;;;20.70;43.10;;;;;;5044621;28;19930;-74
2022/04/24 00:12:22;;;;;;;;;;;20.70;43.10;;;;;;5056549;28;19920;-73
2022/04/24 00:14:48;;;;;;;;;;;20.70;43.10;;;;;;5060096;28;19928;-74
2022/04/24 00:17:20;;;;;;;;;;;20.70;43.10;;;;;;5058982;28;19920;-75
2022/04/24 00:19:45;;;;;;;;;;;20.70;43.10;;;;;;5057379;28;20129;-79
2022/04/24 00:22:11;;;;;;;;;;;20.70;43.20;;;;;;5060884;28;20030;-80
2022/04/24 00:24:36;;;;;;;;;;;20.70;43.20;;;;;;5055171;28;20399;-77
2022/04/24 00:27:02;;;;;;;;;;;20.60;43.10;;;;;;5059652;28;19935;-74
2022/04/24 00:29:27;;;;;;;;;;;20.60;43.10;;;;;;5059549;28;20005;-73
2022/04/24 00:31:53;;;;;;;;;;;20.70;43.20;;;;;;5059315;28;19927;-74
2022/04/24 00:34:18;;;;;;;;;;;20.60;43.10;;;;;;5080211;28;19928;-74
2022/04/24 00:36:45;;;;;;;;;;;20.60;43.10;;;;;;5077535;28;20382;-74
2022/04/24 00:39:11;;;;;;;;;;;20.60;43.20;;;;;;5039500;28;20081;-73
2022/04/24 00:41:43;;;;;;;;;;;20.60;43.20;;;;;;5071974;28;20003;-74
2022/04/24 00:44:09;;;;;;;;;;;20.60;43.10;;;;;;5059366;28;20011;-76
2022/04/24 00:46:46;;;;;;;;;;;20.60;43.10;;;;;;5058400;28;20447;-74
2022/04/24 00:49:13;;;;;;;;;;;20.60;43.20;;;;;;5040812;28;19927;-74
2022/04/24 00:51:38;;;;;;;;;;;20.60;43.10;;;;;;5056768;28;19985;-76
2022/04/24 00:54:05;;;;;;;;;;;20.60;43.10;;;;;;5057911;28;19924;-74
2022/04/24 00:56:32;;;;;;;;;;;20.60;43.10;;;;;;5056267;28;19927;-75
2022/04/24 00:58:58;;;;;;;;;;;20.60;43.10;;;;;;5061154;28;19921;-78
2022/04/24 01:01:24;;;;;;;;;;;20.60;43.10;;;;;;5078604;28;20017;-78
2022/04/24 01:03:50;;;;;;;;;;;20.60;43.10;;;;;;5053274;28;19970;-76
2022/04/24 01:06:15;;;;;;;;;;;20.60;43.10;;;;;;5056300;28;19920;-75
2022/04/24 01:08:40;;;;;;;;;;;20.50;43.00;;;;;;5060193;28;19920;-75
2022/04/24 01:11:06;;;;;;;;;;;20.50;43.10;;;;;;5055442;28;19958;-73
2022/04/24 01:13:32;;;;;;;;;;;20.50;43.00;;;;;;5059091;28;19935;-75
2022/04/24 01:15:57;;;;;;;;;;;20.50;43.00;;;;;;5053838;28;19924;-75
2022/04/24 01:18:23;;;;;;;;;;;20.60;43.10;;;;;;5041352;28;19920;-75
2022/04/24 01:20:49;;;;;;;;;;;20.50;43.00;;;;;;5042106;28;20001;-74
2022/04/24 01:23:14;;;;;;;;;;;20.50;43.10;;;;;;5079978;28;20000;-77
2022/04/24 01:25:40;;;;;;;;;;;20.50;43.00;;;;;;5054212;28;20000;-78
2022/04/24 01:28:06;;;;;;;;;;;20.50;43.10;;;;;;5059175;28;19985;-80
2022/04/24 01:30:32;;;;;;;;;;;20.50;43.10;;;;;;5050472;28;19924;-76
2022/04/24 01:32:57;;;;;;;;;;;20.50;43.00;;;;;;5040052;28;19966;-74
2022/04/24 01:35:23;;;;;;;;;;;20.50;43.10;;;;;;5058875;28;19943;-74
2022/04/24 01:37:48;;;;;;;;;;;20.50;43.10;;;;;;5059730;28;19988;-75
2022/04/24 01:40:14;;;;;;;;;;;20.50;43.10;;;;;;5079248;28;19924;-74
2022/04/24 01:42:39;;;;;;;;;;;20.50;43.10;;;;;;5040201;28;19924;-83
2022/04/24 01:45:05;;;;;;;;;;;20.50;43.10;;;;;;5042095;28;20011;-82
2022/04/24 01:47:31;;;;;;;;;;;20.40;43.00;;;;;;5052025;28;19921;-76
2022/04/24 01:49:56;;;;;;;;;;;20.50;43.10;;;;;;5052124;28;19952;-80
2022/04/24 01:52:22;;;;;;;;;;;20.50;43.20;;;;;;5069196;28;19947;-75
2022/04/24 01:54:48;;;;;;;;;;;20.50;43.10;;;;;;5058411;28;20007;-75
2022/04/24 01:57:13;;;;;;;;;;;20.50;43.00;;;;;;5076691;28;19943;-74
2022/04/24 01:59:39;;;;;;;;;;;20.50;43.00;;;;;;5061690;28;19969;-74
2022/04/24 02:02:04;;;;;;;;;;;20.40;43.00;;;;;;5058806;28;20007;-81
2022/04/24 02:04:30;;;;;;;;;;;20.50;43.00;;;;;;5066445;28;20008;-80
2022/04/24 02:06:55;;;;;;;;;;;20.40;43.10;;;;;;5063330;28;19920;-81
2022/04/24 02:09:21;;;;;;;;;;;20.40;43.10;;;;;;5058039;28;20047;-76
2022/04/24 02:11:46;;;;;;;;;;;20.40;43.10;;;;;;5059658;28;19924;-77
2022/04/24 02:14:15;;;;;;;;;;;20.50;43.10;;;;;;5075761;28;20007;-79
2022/04/24 02:16:40;;;;;;;;;;;20.40;43.10;;;;;;5079097;28;20035;-75
2022/04/24 02:19:06;;;;;;;;;;;20.40;43.10;;;;;;5079527;28;19955;-75
2022/04/24 02:21:31;;;;;;;;;;;20.40;43.00;;;;;;5062706;28;19924;-83
2022/04/24 02:23:56;;;;;;;;;;;20.40;43.10;;;;;;5046340;28;21593;-73
2022/04/24 02:26:22;;;;;;;;;;;20.40;43.10;;;;;;5064000;28;19920;-76
2022/04/24 02:28:47;;;;;;;;;;;20.40;43.10;;;;;;5056362;28;19924;-80
2022/04/24 02:31:13;;;;;;;;;;;20.40;43.10;;;;;;5062635;28;19973;-74
2022/04/24 02:33:39;;;;;;;;;;;20.40;43.10;;;;;;5058553;28;19923;-73
2022/04/24 02:36:05;;;;;;;;;;;20.40;43.10;;;;;;5062233;28;19928;-74
2022/04/24 02:38:30;;;;;;;;;;;20.40;43.10;;;;;;5045245;28;19928;-78
2022/04/24 02:40:56;;;;;;;;;;;20.40;43.10;;;;;;5062030;28;20010;-81
2022/04/24 02:43:21;;;;;;;;;;;20.40;43.10;;;;;;5063936;28;20346;-84
2022/04/24 02:45:47;;;;;;;;;;;20.40;43.10;;;;;;5042067;28;19927;-82
2022/04/24 02:48:12;;;;;;;;;;;20.40;43.10;;;;;;5057803;28;19939;-82
2022/04/24 02:50:39;;;;;;;;;;;20.40;43.10;;;;;;5060919;28;19924;-82
2022/04/24 02:53:05;;;;;;;;;;;20.40;43.20;;;;;;5061632;28;19935;-83
2022/04/24 02:55:31;;;;;;;;;;;20.40;43.10;;;;;;5059713;28;19924;-83
2022/04/24 02:57:57;;;;;;;;;;;20.40;43.10;;;;;;5044665;28;19934;-80
2022/04/24 03:00:24;;;;;;;;;;;20.40;43.10;;;;;;5060262;28;19927;-82
2022/04/24 03:02:51;;;;;;;;;;;20.40;43.20;;;;;;5060968;28;19927;-81
2022/04/24 03:05:23;;;;;;;;;;;20.40;43.20;;;;;;5059886;28;20058;-80
2022/04/24 03:07:49;;;;;;;;;;;20.40;43.20;;;;;;5039850;28;19924;-82
2022/04/24 03:10:15;;;;;;;;;;;20.40;43.20;;;;;;5078541;28;19942;-83
2022/04/24 03:12:41;;;;;;;;;;;20.40;43.20;;;;;;5056147;28;19924;-83
2022/04/24 03:15:07;;;;;;;;;;;20.40;43.20;;;;;;5043950;28;19931;-83
2022/04/24 03:17:33;;;;;;;;;;;20.40;43.20;;;;;;5059702;28;19920;-83
2022/04/24 03:20:03;;;;;;;;;;;20.30;43.20;;;;;;5059033;28;19928;-83
2022/04/24 03:22:30;;;;;;;;;;;20.30;43.20;;;;;;5057533;28;19924;-84
2022/04/24 03:24:56;;;;;;;;;;;20.30;43.20;;;;;;5077023;28;19923;-82
2022/04/24 03:27:21;;;;;;;;;;;20.30;43.20;;;;;;5061596;28;20471;-81
2022/04/24 03:29:47;;;;;;;;;;;20.30;43.20;;;;;;5057834;28;19924;-82
2022/04/24 03:32:12;;;;;;;;;;;20.30;43.20;;;;;;5061677;28;20066;-79
2022/04/24 03:34:38;;;;;;;;;;;20.30;43.20;;;;;;5040245;28;20010;-82
2022/04/24 03:37:04;;;;;;;;;;;20.30;43.30;;;;;;5061202;28;20685;-79
2022/04/24 03:39:30;;;;;;;;;;;20.30;43.20;;;;;;5057713;28;19973;-74
2022/04/24 03:41:56;;;;;;;;;;;20.30;43.30;;;;;;5061645;28;19970;-75
2022/04/24 03:44:22;;;;;;;;;;;20.30;43.30;;;;;;5076493;28;20301;-76
2022/04/24 03:46:47;;;;;;;;;;;20.30;43.30;;;;;;5063103;28;20057;-75
2022/04/24 03:49:13;;;;;;;;;;;20.30;43.30;;;;;;5038447;28;20403;-84
2022/04/24 03:51:38;;;;;;;;;;;20.30;43.30;;;;;;5076673;28;20066;-82
2022/04/24 03:54:04;;;;;;;;;;;20.30;43.30;;;;;;5074917;28;19925;-81
2022/04/24 03:56:31;;;;;;;;;;;20.30;43.40;;;;;;5057363;28;19931;-83
2022/04/24 03:59:00;;;;;;;;;;;20.20;43.30;;;;;;5041749;28;20456;-83
2022/04/24 04:01:26;;;;;;;;;;;20.30;43.30;;;;;;5058951;28;19927;-76
2022/04/24 04:03:51;;;;;;;;;;;20.30;43.30;;;;;;5055931;28;19924;-83
2022/04/24 04:06:17;;;;;;;;;;;20.30;43.30;;;;;;5077928;28;19920;-81
2022/04/24 04:08:43;;;;;;;;;;;20.20;43.30;;;;;;5055948;28;19927;-82
2022/04/24 04:11:08;;;;;;;;;;;20.30;43.40;;;;;;5060435;28;19951;-80
2022/04/24 04:13:34;;;;;;;;;;;20.20;43.30;;;;;;5077637;28;19967;-81
2022/04/24 04:16:00;;;;;;;;;;;20.30;43.40;;;;;;5058446;28;19924;-81
2022/04/24 04:18:25;;;;;;;;;;;20.30;43.40;;;;;;5052657;28;20023;-83
2022/04/24 04:20:51;;;;;;;;;;;20.20;43.40;;;;;;5058044;28;19924;-83
2022/04/24 04:23:16;;;;;;;;;;;20.30;43.40;;;;;;5040317;28;19921;-80
2022/04/24 04:25:41;;;;;;;;;;;20.20;43.40;;;;;;5056915;28;19920;-74
2022/04/24 04:28:07;;;;;;;;;;;20.20;43.40;;;;;;5057276;28;20453;-72
2022/04/24 04:30:33;;;;;;;;;;;20.20;43.40;;;;;;5074528;28;19931;-72
2022/04/24 04:32:58;;;;;;;;;;;20.20;43.40;;;;;;5055500;28;19921;-74
2022/04/24 04:35:24;;;;;;;;;;;20.20;43.40;;;;;;5056674;28;19936;-72
2022/04/24 04:37:50;;;;;;;;;;;20.20;43.40;;;;;;5059108;28;20405;-82
2022/04/24 04:40:18;;;;;;;;;;;20.20;43.30;;;;;;5053514;28;19920;-83
2022/04/24 04:42:43;;;;;;;;;;;20.20;43.30;;;;;;5053108;28;19931;-83
2022/04/24 04:45:09;;;;;;;;;;;20.20;43.30;;;;;;5056684;28;19920;-81
2022/04/24 04:47:35;;;;;;;;;;;20.20;43.30;;;;;;5057486;28;20030;-81
2022/04/24 04:50:02;;;;;;;;;;;20.20;43.30;;;;;;5058272;28;20006;-83
2022/04/24 04:52:27;;;;;;;;;;;20.20;43.30;;;;;;5058355;28;19924;-79
2022/04/24 04:54:53;;;;;;;;;;;20.20;43.30;;;;;;5059302;28;19946;-81
2022/04/24 04:57:18;;;;;;;;;;;20.20;43.30;;;;;;5072912;28;19924;-82
2022/04/24 04:59:44;;;;;;;;;;;20.20;43.40;;;;;;5060111;28;20591;-81
2022/04/24 05:02:09;;;;;;;;;;;20.20;43.40;;;;;;5057832;28;20527;-83
2022/04/24 05:04:35;;;;;;;;;;;20.20;43.30;;;;;;5058414;28;19920;-84
2022/04/24 05:07:00;;;;;;;;;;;20.20;43.40;;;;;;5057180;28;19928;-84
2022/04/24 05:09:26;;;;;;;;;;;20.20;43.40;;;;;;5053794;28;19923;-82
2022/04/24 05:11:53;;;;;;;;;;;20.20;43.40;;;;;;5053741;28;20379;-82
2022/04/24 05:14:18;;;;;;;;;;;20.20;43.40;;;;;;5052021;28;19927;-78
2022/04/24 05:16:44;;;;;;;;;;;20.20;43.40;;;;;;5056404;28;19924;-80
2022/04/24 05:19:09;;;;;;;;;;;20.20;43.40;;;;;;5052510;28;19921;-78
2022/04/24 05:21:35;;;;;;;;;;;20.20;43.40;;;;;;5040866;28;20059;-79
2022/04/24 05:24:00;;;;;;;;;;;20.20;43.50;;;;;;5054899;28;19928;-79
2022/04/24 05:26:28;;;;;;;;;;;20.20;43.40;;;;;;5053066;28;19944;-78
2022/04/24 05:28:54;;;;;;;;;;;20.20;43.40;;;;;;5032543;28;19920;-81
2022/04/24 05:31:20;;;;;;;;;;;20.20;43.40;;;;;;5057105;28;19929;-81
2022/04/24 05:33:46;;;;;;;;;;;20.20;43.40;;;;;;5052562;28;19955;-83
2022/04/24 05:36:12;;;;;;;;;;;20.20;43.50;;;;;;5055796;28;20372;-84
2022/04/24 05:38:37;;;;;;;;;;;20.30;43.40;;;;;;5051390;28;19939;-76
2022/04/24 05:41:03;;;;;;;;;;;20.30;43.50;;;;;;5055156;28;20122;-79
2022/04/24 05:43:29;;;;;;;;;;;20.30;43.50;;;;;;5053754;28;20395;-81
2022/04/24 05:45:54;;;;;;;;;;;20.30;43.50;;;;;;5053786;28;20379;-82
2022/04/24 05:48:20;;;;;;;;;;;20.30;43.50;;;;;;5051574;28;20023;-79
2022/04/24 05:50:45;;;;;;;;;;;20.30;43.50;;;;;;5054444;28;19924;-79
2022/04/24 05:53:11;;;;;;;;;;;20.30;43.50;;;;;;5051026;28;20069;-82
2022/04/24 05:55:36;;;;;;;;;;;20.30;43.60;;;;;;5056492;28;20264;-83
2022/04/24 05:58:02;;;;;;;;;;;20.30;43.70;;;;;;5035132;28;19920;-84
2022/04/24 06:00:28;;;;;;;;;;;20.30;43.70;;;;;;5053063;28;19925;-81
2022/04/24 06:02:53;;;;;;;;;;;20.40;43.80;;;;;;5052768;28;19928;-83
2022/04/24 06:05:19;;;;;;;;;;;20.40;43.80;;;;;;5045527;28;19917;-80
2022/04/24 06:07:45;;;;;;;;;;;20.40;44.00;;;;;;5047257;28;19920;-83
2022/04/24 06:10:11;;;;;;;;;;;20.40;44.00;;;;;;5050293;28;19932;-75
2022/04/24 06:12:45;;;;;;;;;;;20.40;44.10;;;;;;5035616;28;20127;-80
2022/04/24 06:15:15;;;;;;;;;;;20.40;44.20;;;;;;5045164;28;19920;-80
2022/04/24 06:17:46;;;;;;;;;;;20.50;44.20;;;;;;5045805;28;21521;-75
2022/04/24 06:20:13;;;;;;;;;;;20.50;44.40;;;;;;5045439;28;20023;-77
2022/04/24 06:22:45;;;;;;;;;;;20.60;44.40;;;;;;5049777;28;19923;-72
2022/04/24 06:25:19;;;;;;;;;;;20.60;44.40;;;;;;5046133;28;19924;-74
2022/04/24 06:27:45;;;;;;;;;;;20.60;44.50;;;;;;5046999;28;19975;-74
2022/04/24 06:30:11;;;;;;;;;;;20.60;44.50;;;;;;5048600;28;19990;-74
2022/04/24 06:32:41;;;;;;;;;;;20.60;44.50;;;;;;5048939;28;20005;-75
2022/04/24 06:35:11;;;;;;;;;;;20.70;44.60;;;;;;5047072;28;19962;-75
2022/04/24 06:37:37;;;;;;;;;;;20.70;44.60;;;;;;5052012;28;20015;-73
2022/04/24 06:40:07;;;;;;;;;;;20.70;44.60;;;;;;5049273;28;20015;-73
2022/04/24 06:42:33;;;;;;;;;;;20.70;44.60;;;;;;5052926;28;19928;-74
2022/04/24 06:44:58;;;;;;;;;;;20.70;44.60;;;;;;5051805;28;19982;-73
2022/04/24 06:47:23;;;;;;;;;;;20.70;44.70;;;;;;5019230;28;20016;-74
2022/04/24 06:49:49;;;;;;;;;;;20.70;44.70;;;;;;5051957;28;19925;-74
2022/04/24 06:52:14;;;;;;;;;;;20.80;44.70;;;;;;5028185;28;19924;-74
2022/04/24 06:54:40;;;;;;;;;;;20.80;44.80;;;;;;5045687;28;20774;-73
2022/04/24 06:57:05;;;;;;;;;;;20.80;44.70;;;;;;5049304;28;19924;-74
2022/04/24 06:59:31;;;;;;;;;;;20.80;44.80;;;;;;5049018;28;19935;-75
2022/04/24 07:01:56;;;;;;;;;;;20.80;45.00;;;;;;5057575;28;19931;-73
2022/04/24 07:04:22;;;;;;;;;;;20.90;45.10;;;;;;5035655;28;19928;-74
2022/04/24 07:06:47;;;;;;;;;;;20.90;45.10;;;;;;5047354;28;20047;-74
2022/04/24 07:09:13;;;;;;;;;;;20.90;45.10;;;;;;5054286;28;19920;-75
2022/04/24 07:11:40;;;;;;;;;;;20.90;45.30;;;;;;5050355;28;19927;-75
2022/04/24 07:14:06;;;;;;;;;;;20.90;45.30;;;;;;5053682;28;20318;-74
2022/04/24 07:16:35;;;;;;;;;;;21.00;46.00;;;;;;5072242;28;19972;-75
2022/04/24 07:19:00;;;;;;;;;;;21.10;45.50;;;;;;5054683;28;19924;-76
2022/04/24 07:21:26;;;;;;;;;;;21.10;45.40;;;;;;5051034;28;19929;-81
2022/04/24 07:23:52;;;;;;;;;;;21.10;45.40;;;;;;5060385;28;20631;-77
2022/04/24 07:26:18;;;;;;;;;;;21.20;45.50;;;;;;5053639;28;19924;-79
2022/04/24 07:28:43;;;;;;;;;;;21.20;45.40;;;;;;5050929;28;20411;-80
2022/04/24 07:31:09;;;;;;;;;;;21.30;45.40;;;;;;5056201;28;19935;-75
2022/04/24 07:33:37;;;;;;;;;;;21.30;45.20;;;;;;5068167;28;19928;-79
2022/04/24 07:36:04;;;;;;;;;;;21.30;45.30;;;;;;5059455;28;19920;-79
2022/04/24 07:38:30;;;;;;;;;;;21.40;45.20;;;;;;5053116;28;19929;-78
2022/04/24 07:40:55;;;;;;;;;;;21.40;45.20;;;;;;5057806;28;20694;-74
2022/04/24 07:43:21;;;;;;;;;;;21.40;45.10;;;;;;5053877;28;19928;-77
2022/04/24 07:45:47;;;;;;;;;;;21.50;45.10;;;;;;5058785;28;20027;-81
2022/04/24 07:48:13;;;;;;;;;;;21.50;45.10;;;;;;5036586;28;19932;-78
2022/04/24 07:50:39;;;;;;;;;;;21.50;45.10;;;;;;5053594;28;19924;-78
2022/04/24 07:53:05;;;;;;;;;;;21.50;45.00;;;;;;5065032;28;19924;-77
2022/04/24 07:55:31;;;;;;;;;;;21.60;45.10;;;;;;5072312;28;20463;-79
2022/04/24 07:57:57;;;;;;;;;;;21.60;45.00;;;;;;5071566;28;19924;-79
2022/04/24 08:00:23;;;;;;;;;;;21.60;44.70;;;;;;5069573;28;20719;-76
2022/04/24 08:03:02;;;;;;;;;;;21.60;44.70;;;;;;5055211;28;20009;-75
2022/04/24 08:05:31;;;;;;;;;;;21.70;45.00;;;;;;5052053;28;20527;-78
2022/04/24 08:07:58;;;;;;;;;;;21.70;45.20;;;;;;5052278;28;19975;-77
2022/04/24 08:10:25;;;;;;;;;;;21.80;45.60;;;;;;5066735;28;19928;-77
2022/04/24 08:12:50;;;;;;;;;;;21.80;45.70;;;;;;5053428;28;19930;-81
2022/04/24 08:15:16;;;;;;;;;;;21.80;45.70;;;;;;5040016;28;21119;-79
2022/04/24 08:17:42;;;;;;;;;;;21.90;45.80;;;;;;5057737;28;20028;-77
2022/04/24 08:20:08;;;;;;;;;;;21.80;45.70;;;;;;5051754;28;20010;-76
2022/04/24 08:22:38;;;;;;;;;;;21.90;45.80;;;;;;5055915;28;19928;-77
2022/04/24 08:25:04;;;;;;;;;;;22.00;45.90;;;;;;5052110;28;19927;-77
2022/04/24 08:27:30;;;;;;;;;;;22.00;45.90;;;;;;5053212;28;19935;-77
2022/04/24 08:29:55;;;;;;;;;;;22.00;46.60;;;;;;5036747;28;19920;-79
2022/04/24 08:32:24;;;;;;;;;;;22.10;45.90;;;;;;5034978;28;20248;-77
2022/04/24 08:34:52;;;;;;;;;;;22.10;45.80;;;;;;5072154;28;19928;-77
2022/04/24 08:37:18;;;;;;;;;;;22.10;45.80;;;;;;5050379;28;19943;-76
2022/04/24 08:39:43;;;;;;;;;;;22.20;45.70;;;;;;5053026;28;20037;-76
2022/04/24 08:42:13;;;;;;;;;;;22.20;45.80;;;;;;5054811;28;20279;-76
2022/04/24 08:44:39;;;;;;;;;;;22.20;45.80;;;;;;5036677;28;19958;-76
2022/04/24 08:47:07;;;;;;;;;;;22.20;45.70;;;;;;5056401;28;19928;-77
2022/04/24 08:49:32;;;;;;;;;;;22.30;45.70;;;;;;5038701;28;19928;-75
2022/04/24 08:51:58;;;;;;;;;;;22.30;45.70;;;;;;5054936;28;19927;-76
2022/04/24 08:54:26;;;;;;;;;;;22.30;45.60;;;;;;5075589;28;19920;-76
2022/04/24 08:56:52;;;;;;;;;;;22.30;45.60;;;;;;5054218;28;19950;-75
2022/04/24 08:59:17;;;;;;;;;;;22.40;45.50;;;;;;5050094;28;19920;-78
2022/04/24 09:01:44;;;;;;;;;;;22.40;45.20;;;;;;5051275;28;20394;-77
2022/04/24 09:04:10;;;;;;;;;;;22.40;45.00;;;;;;5052697;28;20055;-78
2022/04/24 09:06:35;;;;;;;;;;;22.50;45.00;;;;;;5030266;28;20423;-79
2022/04/24 09:09:05;;;;;;;;;;;22.50;44.90;;;;;;5053394;28;19945;-77
2022/04/24 09:11:31;;;;;;;;;;;22.50;44.90;;;;;;5034020;28;19935;-76
2022/04/24 09:14:15;;;;;;;;;;;22.50;44.90;;;;;;5072984;28;20406;-78
2022/04/24 09:16:47;;;;;;;;;;;22.50;44.80;;;;;;5051471;28;19928;-80
2022/04/24 09:19:16;;;;;;;;;;;22.50;44.70;;;;;;5038890;28;19919;-78
2022/04/24 09:21:42;;;;;;;;;;;22.60;44.50;;;;;;5052393;28;19932;-79
2022/04/24 09:24:07;;;;;;;;;;;22.60;44.40;;;;;;5054572;28;19931;-75
2022/04/24 09:26:33;;;;;;;;;;;22.60;44.30;;;;;;5051186;28;20395;-77
2022/04/24 09:28:59;;;;;;;;;;;22.60;44.20;;;;;;5054895;28;19930;-74
2022/04/24 09:31:30;;;;;;;;;;;22.60;44.10;;;;;;5036845;28;19939;-73
2022/04/24 09:33:56;;;;;;;;;;;22.60;44.00;;;;;;5053361;28;19965;-75
2022/04/24 09:36:24;;;;;;;;;;;22.60;43.90;;;;;;5054808;28;19924;-75
2022/04/24 09:38:50;;;;;;;;;;;22.60;43.70;;;;;;5054509;28;19928;-76
2022/04/24 09:41:22;;;;;;;;;;;22.60;43.60;;;;;;5034506;28;19928;-78
2022/04/24 09:43:48;;;;;;;;;;;22.60;43.60;;;;;;5037491;28;19977;-76
2022/04/24 09:46:23;;;;;;;;;;;22.60;43.40;;;;;;5038340;28;21805;-74
2022/04/24 09:48:52;;;;;;;;;;;22.70;43.30;;;;;;5040085;28;19923;-77
2022/04/24 09:51:18;;;;;;;;;;;22.70;43.30;;;;;;5034384;28;19924;-73
2022/04/24 09:53:43;;;;;;;;;;;22.70;43.20;;;;;;5052035;28;19927;-76
2022/04/24 09:56:10;;;;;;;;;;;22.70;43.00;;;;;;5075867;28;19924;-76
2022/04/24 09:58:37;;;;;;;;;;;22.70;43.00;;;;;;5069954;28;19928;-76
2022/04/24 10:01:04;;;;;;;;;;;22.70;42.80;;;;;;5052376;28;20316;-76
2022/04/24 10:03:29;;;;;;;;;;;22.70;42.50;;;;;;5041586;28;19924;-75
2022/04/24 10:05:55;;;;;;;;;;;22.70;42.50;;;;;;5053554;28;19935;-73
2022/04/24 10:08:21;;;;;;;;;;;22.70;42.50;;;;;;5050830;28;19939;-74
2022/04/24 10:10:47;;;;;;;;;;;22.70;43.30;;;;;;5055797;28;19928;-74
2022/04/24 10:13:12;;;;;;;;;;;22.70;42.40;;;;;;5055449;28;19920;-76
2022/04/24 10:15:43;;;;;;;;;;;22.70;42.30;;;;;;5056024;28;20478;-81
2022/04/24 10:18:25;;;;;;;;;;;22.70;42.30;;;;;;5056911;28;20066;-77
2022/04/24 10:21:10;;;;;;;;;;;22.70;42.10;;;;;;5043706;28;19920;-79
2022/04/24 10:23:37;;;;;;;;;;;22.70;42.00;;;;;;5061571;28;19928;-75
2022/04/24 10:26:03;;;;;;;;;;;22.80;42.10;;;;;;5041751;28;19970;-74
2022/04/24 10:28:40;;;;;;;;;;;22.70;42.00;;;;;;5055090;28;19928;-77
2022/04/24 10:31:06;;;;;;;;;;;22.80;42.30;;;;;;5041148;28;20268;-76
2022/04/24 10:33:32;;;;;;;;;;;22.80;41.90;;;;;;5034738;28;19924;-79
2022/04/24 10:35:59;;;;;;;;;;;22.80;41.90;;;;;;5054492;28;20387;-76
2022/04/24 10:38:26;;;;;;;;;;;22.80;42.00;;;;;;5035435;28;19963;-78
2022/04/24 10:40:56;;;;;;;;;;;22.80;41.80;;;;;;5041174;28;19956;-76
2022/04/24 10:43:23;;;;;;;;;;;22.80;41.60;;;;;;5063112;28;19947;-75
2022/04/24 10:45:49;;;;;;;;;;;22.80;41.60;;;;;;5038904;28;19950;-75
2022/04/24 10:48:14;;;;;;;;;;;22.80;41.50;;;;;;5063610;28;19932;-75
2022/04/24 10:50:47;;;;;;;;;;;22.80;41.50;;;;;;5065863;28;19924;-75
2022/04/24 10:53:12;;;;;;;;;;;22.80;41.50;;;;;;5047972;28;19966;-74
2022/04/24 10:55:38;;;;;;;;;;;22.80;41.30;;;;;;5065727;28;20216;-75
2022/04/24 10:58:05;;;;;;;;;;;22.80;41.20;;;;;;5051544;28;19931;-76
2022/04/24 11:00:35;;;;;;;;;;;22.80;41.10;;;;;;5069173;28;20378;-74
2022/04/24 11:03:20;;;;;;;;;;;22.80;41.00;;;;;;5064661;28;19924;-75
2022/04/24 11:05:46;;;;;;;;;;;22.80;40.70;;;;;;5050829;28;19924;-76
2022/04/24 11:08:23;;;;;;;;;;;22.80;40.50;;;;;;5067011;28;19924;-83
2022/04/24 11:10:49;;;;;;;;;;;22.80;40.50;;;;;;5070497;28;19935;-80
2022/04/24 11:13:17;;;;;;;;;;;22.80;40.50;;;;;;5070356;28;20394;-78
2022/04/24 11:15:44;;;;;;;;;;;22.80;40.50;;;;;;5088470;28;19944;-79
2022/04/24 11:18:20;;;;;;;;;;;22.80;40.40;;;;;;5087998;28;19924;-78
2022/04/24 11:20:53;;;;;;;;;;;22.80;40.30;;;;;;5053417;28;19959;-77
2022/04/24 11:23:19;;;;;;;;;;;22.80;40.20;;;;;;5040469;28;19978;-80
2022/04/24 11:25:45;;;;;;;;;;;22.80;40.30;;;;;;5066176;28;19920;-76
2022/04/24 11:28:11;;;;;;;;;;;22.80;40.20;;;;;;5071689;28;19927;-80
2022/04/24 11:30:38;;;;;;;;;;;22.80;40.10;;;;;;5055606;28;19924;-80
2022/04/24 11:33:05;;;;;;;;;;;22.70;40.10;;;;;;5035662;28;19931;-76
2022/04/24 11:35:31;;;;;;;;;;;22.70;40.20;;;;;;5050381;28;20382;-79
2022/04/24 11:37:57;;;;;;;;;;;22.70;40.30;;;;;;5062776;28;20286;-78
2022/04/24 11:40:23;;;;;;;;;;;22.60;40.30;;;;;;5087899;28;19924;-74
2022/04/24 11:42:48;;;;;;;;;;;22.60;40.30;;;;;;5070248;28;19919;-76
2022/04/24 11:50:50;;;;;;;;;;;22.50;40.30;;;;;;5071053;28;20014;-77
2022/04/24 11:53:16;;;;;;;;;;;22.50;40.40;;;;;;5060304;28;19920;-76
2022/04/24 11:58:26;;;;;;;;;;;22.40;40.20;;;;;;5066379;28;19924;-79
2022/04/24 12:00:51;;;;;;;;;;;22.40;40.20;;;;;;5052307;28;19973;-77
2022/04/24 12:03:17;;;;;;;;;;;22.40;40.30;;;;;;5069435;28;19924;-75
2022/04/24 12:05:43;;;;;;;;;;;22.40;40.20;;;;;;5063366;28;19921;-75
2022/04/24 12:08:11;;;;;;;;;;;22.40;40.10;;;;;;5058653;28;20363;-77
2022/04/24 12:10:42;;;;;;;;;;;22.40;40.00;;;;;;5085769;28;19977;-78
2022/04/24 12:13:09;;;;;;;;;;;22.30;40.00;;;;;;5062498;28;19925;-76
2022/04/24 12:15:34;;;;;;;;;;;22.40;40.00;;;;;;5037824;28;19998;-75
2022/04/24 12:18:01;;;;;;;;;;;22.40;39.80;;;;;;5065323;28;19972;-75
2022/04/24 12:20:34;;;;;;;;;;;22.40;39.90;;;;;;5068109;28;19926;-77
2022/04/24 12:23:12;;;;;;;;;;;22.40;40.00;;;;;;5048389;28;20292;-74
2022/04/24 12:25:48;;;;;;;;;;;22.40;39.90;;;;;;5036285;28;19971;-78
2022/04/24 12:28:25;;;;;;;;;;;22.40;39.80;;;;;;5070325;28;20413;-80
2022/04/24 12:30:51;;;;;;;;;;;22.40;39.80;;;;;;5066816;28;19951;-75
2022/04/24 12:33:17;;;;;;;;;;;22.40;39.90;;;;;;5061065;28;20379;-76
2022/04/24 12:35:44;;;;;;;;;;;22.40;39.80;;;;;;5063436;28;19927;-77
2022/04/24 12:38:13;;;;;;;;;;;22.40;39.70;;;;;;5056964;28;20402;-76
2022/04/24 12:40:38;;;;;;;;;;;22.40;39.80;;;;;;5040374;28;20014;-74
2022/04/24 12:43:05;;;;;;;;;;;22.40;39.80;;;;;;5055387;28;20014;-75
2022/04/24 12:45:32;;;;;;;;;;;22.40;39.90;;;;;;5056200;28;19967;-76
2022/04/24 12:47:58;;;;;;;;;;;22.40;40.00;;;;;;5058463;28;19913;-75
2022/04/24 12:50:24;;;;;;;;;;;22.40;40.00;;;;;;5073067;28;19930;-75
2022/04/24 12:52:49;;;;;;;;;;;22.40;40.10;;;;;;5035911;28;19935;-75
2022/04/24 12:55:16;;;;;;;;;;;22.30;39.90;;;;;;5060815;28;19928;-74
2022/04/24 12:57:41;;;;;;;;;;;22.30;40.00;;;;;;5054941;28;20442;-76
2022/04/24 13:00:07;;;;;;;;;;;22.30;40.00;;;;;;5056157;28;20007;-76
2022/04/24 13:02:33;;;;;;;;;;;22.30;40.10;;;;;;5041606;28;19928;-74
2022/04/24 13:04:59;;;;;;;;;;;22.30;40.00;;;;;;5059002;28;19938;-75
2022/04/24 13:07:25;;;;;;;;;;;22.30;40.20;;;;;;5044474;28;19924;-76
2022/04/24 13:09:51;;;;;;;;;;;22.30;40.00;;;;;;5058105;28;19924;-76
2022/04/24 13:12:16;;;;;;;;;;;22.40;40.20;;;;;;5055918;28;20298;-78
2022/04/24 13:14:42;;;;;;;;;;;22.40;40.20;;;;;;5037127;28;19932;-76
2022/04/24 13:19:52;;;;;;;;;;;22.40;39.90;;;;;;5053537;28;19932;-75
2022/04/24 13:22:17;;;;;;;;;;;22.40;40.00;;;;;;5061072;28;19962;-81
2022/04/24 13:24:43;;;;;;;;;;;22.40;40.00;;;;;;5090243;28;20533;-76
2022/04/24 13:27:09;;;;;;;;;;;22.40;39.90;;;;;;5053984;28;20006;-74
2022/04/24 13:29:34;;;;;;;;;;;22.40;40.00;;;;;;5059856;28;20027;-75
2022/04/24 13:32:00;;;;;;;;;;;22.40;39.80;;;;;;5056604;28;19924;-75
2022/04/24 13:34:25;;;;;;;;;;;22.40;40.10;;;;;;5056244;28;19943;-78
2022/04/24 13:38:17;;;;;;;;;;;22.30;40.00;;;;;;5059743;28;19924;-75
2022/04/24 13:39:37;;;;;;;;;;;22.40;40.00;;;;;;5055214;28;20027;-76
2022/04/24 13:42:06;;;;;;;;;;;22.40;40.10;;;;;;5042620;28;20015;-78
2022/04/24 13:44:32;;;;;;;;;;;22.40;40.20;;;;;;5040740;28;19924;-76
2022/04/24 13:46:58;;;;;;;;;;;22.40;40.00;;;;;;5058597;28;20418;-74
2022/04/24 13:49:23;;;;;;;;;;;22.40;40.10;;;;;;5058885;28;19931;-75
2022/04/24 13:51:49;;;;;;;;;;;22.40;40.10;;;;;;5062785;28;19919;-75
2022/04/24 13:54:14;;;;;;;;;;;22.30;40.00;;;;;;5058004;28;19931;-79
2022/04/24 13:56:40;;;;;;;;;;;22.40;40.20;;;;;;5047109;28;20011;-75
2022/04/24 13:59:05;;;;;;;;;;;22.40;40.30;;;;;;5065531;28;19935;-76
2022/04/24 14:01:31;;;;;;;;;;;22.40;40.50;;;;;;5081140;28;20361;-75
2022/04/24 14:03:56;;;;;;;;;;;22.40;40.30;;;;;;5061675;28;19920;-76
2022/04/24 14:06:23;;;;;;;;;;;22.40;40.00;;;;;;5060733;28;19924;-77
2022/04/24 14:08:48;;;;;;;;;;;22.30;40.30;;;;;;5061500;28;20316;-74
2022/04/24 14:11:14;;;;;;;;;;;22.30;40.20;;;;;;5057838;28;19920;-75
2022/04/24 14:13:39;;;;;;;;;;;22.30;40.20;;;;;;5078150;28;19931;-80
2022/04/24 14:16:06;;;;;;;;;;;22.30;40.20;;;;;;5094346;28;19923;-75
2022/04/24 14:18:32;;;;;;;;;;;22.30;40.20;;;;;;5053874;28;20311;-79
2022/04/24 14:20:58;;;;;;;;;;;22.30;40.20;;;;;;5042685;28;20351;-78
2022/04/24 14:23:23;;;;;;;;;;;22.30;40.20;;;;;;5074184;28;19920;-75